Time;durP1;ratioP1;P1;durP2;ratioP2;P2;SDS_P1;SDS_P2;PMS_P1;PMS_P2;Temp;Humidity;BMP_temperature;BMP_pressure;BME280_temperature;BME280_humidity;BME280_pressure;Samples;Min_cycle;Max_cycle;Signal;HPM_P1;HPM_P2
2020/12/14 00:02:24;;;;;;;48.50;18.50;;;2.30;99.90;;;;;;4880076;29;20193;-90
2020/12/14 00:04:51;;;;;;;51.63;18.60;;;0.80;99.90;;;;;;4863773;29;20188;-89
2020/12/14 00:07:18;;;;;;;45.57;18.27;;;3.60;99.90;;;;;;4848176;29;20285;-90
2020/12/14 00:09:44;;;;;;;58.83;20.40;;;3.70;99.90;;;;;;4863602;29;20204;-90
2020/12/14 00:12:10;;;;;;;53.40;20.77;;;-1.10;99.90;;;;;;4863415;29;20746;-90
2020/12/14 00:14:36;;;;;;;55.80;18.93;;;2.90;99.90;;;;;;4863194;29;20265;-90
2020/12/14 00:17:01;;;;;;;52.53;21.00;;;1.50;99.90;;;;;;4863402;29;20278;-90
2020/12/14 00:19:27;;;;;;;61.43;21.93;;;3.20;99.90;;;;;;4847496;29;20628;-90
2020/12/14 00:21:54;;;;;;;59.63;22.03;;;3.40;99.90;;;;;;4863259;29;20191;-90
2020/12/14 00:24:21;;;;;;;55.53;21.03;;;2.60;99.90;;;;;;4863013;29;20187;-90
2020/12/14 00:26:48;;;;;;;45.57;19.53;;;2.90;99.90;;;;;;4863480;29;20269;-90
2020/12/14 00:29:14;;;;;;;48.53;18.50;;;2.50;99.90;;;;;;4862801;29;20195;-90
2020/12/14 00:31:40;;;;;;;53.07;20.10;;;3.50;99.90;;;;;;4863069;29;20217;-90
2020/12/14 00:34:05;;;;;;;55.47;21.20;;;1.60;99.90;;;;;;4879680;29;20190;-90
2020/12/14 00:36:32;;;;;;;53.37;21.13;;;2.80;99.90;;;;;;4862754;29;20200;-89
2020/12/14 00:38:57;;;;;;;60.53;21.43;;;3.60;99.90;;;;;;4879468;29;20244;-90
2020/12/14 00:41:23;;;;;;;65.53;21.80;;;3.00;99.90;;;;;;4862497;29;20240;-90
2020/12/14 00:43:49;;;;;;;74.03;24.70;;;2.10;99.90;;;;;;4862985;29;20190;-90
2020/12/14 00:46:16;;;;;;;79.47;25.03;;;1.40;99.90;;;;;;4847163;29;20186;-90
2020/12/14 00:48:44;;;;;;;72.47;24.80;;;2.60;99.90;;;;;;4863072;29;20191;-90
2020/12/14 00:51:10;;;;;;;79.73;26.27;;;2.60;99.90;;;;;;4879573;29;20179;-90
2020/12/14 00:53:36;;;;;;;79.33;25.80;;;3.20;99.90;;;;;;4862478;29;20288;-89
2020/12/14 00:56:06;;;;;;;71.73;25.67;;;3.10;99.90;;;;;;4862936;29;20280;-90
2020/12/14 00:58:32;;;;;;;87.70;25.97;;;0.70;99.90;;;;;;4879499;29;20182;-90
2020/12/14 01:00:58;;;;;;;74.63;23.87;;;3.00;99.90;;;;;;4879483;29;20636;-89
2020/12/14 01:03:24;;;;;;;75.00;24.27;;;2.70;99.90;;;;;;4862039;29;20191;-90
2020/12/14 01:05:51;;;;;;;80.33;24.60;;;3.50;99.90;;;;;;4862669;29;20282;-89
2020/12/14 01:08:18;;;;;;;72.03;24.73;;;2.90;99.90;;;;;;4862398;29;20218;-90
2020/12/14 01:10:44;;;;;;;70.10;23.87;;;3.20;99.90;;;;;;4862306;29;20185;-90
2020/12/14 01:13:10;;;;;;;68.83;22.20;;;2.30;99.90;;;;;;4862625;29;20568;-90
2020/12/14 01:15:36;;;;;;;67.07;23.73;;;2.00;99.90;;;;;;4846934;29;20198;-89
2020/12/14 01:18:02;;;;;;;64.13;21.63;;;0.60;99.90;;;;;;4862396;29;20182;-90
2020/12/14 01:20:27;;;;;;;59.40;21.13;;;3.40;99.90;;;;;;4878710;29;20213;-90
2020/12/14 01:22:53;;;;;;;50.67;18.40;;;0.70;99.90;;;;;;4881488;29;20189;-89
2020/12/14 01:25:19;;;;;;;54.23;21.33;;;3.00;99.90;;;;;;4882824;29;20214;-90
2020/12/14 01:27:44;;;;;;;53.63;19.40;;;2.90;99.90;;;;;;4865952;29;20183;-90
2020/12/14 01:30:10;;;;;;;58.27;20.50;;;2.30;99.90;;;;;;4866417;29;20181;-89
2020/12/14 01:32:35;;;;;;;54.83;19.97;;;1.10;99.90;;;;;;4882418;29;20213;-89
2020/12/14 01:35:01;;;;;;;54.27;19.73;;;0.60;99.90;;;;;;4850866;29;20208;-89
2020/12/14 01:37:27;;;;;;;48.90;19.87;;;3.50;99.90;;;;;;4865939;29;20193;-89
2020/12/14 01:39:52;;;;;;;48.27;19.30;;;2.40;99.90;;;;;;4866227;29;20189;-89
2020/12/14 01:42:22;;;;;;;55.07;18.03;;;3.10;99.90;;;;;;4850426;29;20767;-90
2020/12/14 01:44:49;;;;;;;59.53;19.20;;;2.40;99.90;;;;;;4866208;29;20192;-90
2020/12/14 01:47:29;;;;;;;48.47;18.47;;;2.90;99.90;;;;;;4882758;29;20178;-89
2020/12/14 01:49:56;;;;;;;71.43;19.90;;;0.50;99.90;;;;;;4866148;29;20243;-89
2020/12/14 01:52:23;;;;;;;62.63;21.83;;;2.10;99.90;;;;;;4882078;29;20273;-89
2020/12/14 01:54:50;;;;;;;61.70;19.40;;;2.70;99.90;;;;;;4865844;29;20267;-88
2020/12/14 01:57:16;;;;;;;65.03;21.67;;;2.50;99.90;;;;;;4882630;29;20236;-89
2020/12/14 01:59:42;;;;;;;59.30;19.67;;;0.60;99.90;;;;;;4865494;29;20185;-89
2020/12/14 02:02:07;;;;;;;57.83;20.23;;;3.10;99.90;;;;;;4865868;29;20541;-89
2020/12/14 02:04:33;;;;;;;56.50;21.63;;;2.80;99.90;;;;;;4865344;29;20186;-89
2020/12/14 02:06:59;;;;;;;58.63;20.40;;;2.30;99.90;;;;;;4882547;29;20650;-90
2020/12/14 02:09:24;;;;;;;49.63;18.27;;;2.80;99.90;;;;;;4850197;29;20538;-89
2020/12/14 02:11:50;;;;;;;57.93;19.20;;;2.90;99.90;;;;;;4865781;29;20245;-89
2020/12/14 02:14:16;;;;;;;53.57;19.83;;;0.50;99.90;;;;;;4850285;29;20199;-89
2020/12/14 02:16:41;;;;;;;54.97;20.33;;;0.50;99.90;;;;;;4881653;29;20189;-90
2020/12/14 02:19:07;;;;;;;57.80;20.00;;;0.70;99.90;;;;;;4865737;29;20640;-90
2020/12/14 02:21:33;;;;;;;52.20;20.27;;;2.80;99.90;;;;;;4865336;29;20224;-89
2020/12/14 02:23:58;;;;;;;56.43;18.13;;;0.90;99.90;;;;;;4865686;29;20261;-90
2020/12/14 02:26:24;;;;;;;59.33;20.17;;;3.40;99.90;;;;;;4881817;29;20178;-90
2020/12/14 02:28:50;;;;;;;55.27;19.73;;;2.70;99.90;;;;;;4865459;29;20536;-88
2020/12/14 02:31:15;;;;;;;52.73;18.93;;;2.30;99.90;;;;;;4883813;29;20607;-87
2020/12/14 02:33:41;;;;;;;51.53;18.77;;;2.70;99.90;;;;;;4882270;29;20226;-87
2020/12/14 02:36:06;;;;;;;53.53;19.30;;;0.50;99.90;;;;;;4868714;29;20182;-87
2020/12/14 02:38:32;;;;;;;65.27;20.90;;;2.90;99.90;;;;;;4884475;29;20186;-88
2020/12/14 02:40:58;;;;;;;62.33;20.23;;;2.90;99.90;;;;;;4882507;29;20355;-88
2020/12/14 02:43:23;;;;;;;59.73;21.73;;;2.30;99.90;;;;;;4864931;29;20834;-90
2020/12/14 02:45:49;;;;;;;61.50;20.07;;;1.00;99.90;;;;;;4865963;29;20199;-87
2020/12/14 02:48:15;;;;;;;54.33;18.23;;;3.10;99.90;;;;;;4868339;29;20242;-87
2020/12/14 02:50:41;;;;;;;55.27;19.67;;;3.00;99.90;;;;;;4867456;29;20201;-87
2020/12/14 02:53:06;;;;;;;52.07;18.20;;;0.50;99.90;;;;;;4850296;29;20265;-87
2020/12/14 02:55:32;;;;;;;44.17;16.33;;;1.20;99.90;;;;;;4865310;29;20194;-89
2020/12/14 02:57:58;;;;;;;46.17;17.83;;;2.90;99.90;;;;;;4864758;29;20216;-89
2020/12/14 03:00:23;;;;;;;55.80;17.70;;;3.50;99.90;;;;;;4864510;29;20206;-89
2020/12/14 03:02:49;;;;;;;50.33;17.77;;;2.10;99.90;;;;;;4881490;29;20598;-90
2020/12/14 03:05:15;;;;;;;57.63;19.90;;;0.50;99.90;;;;;;4864596;29;20178;-89
2020/12/14 03:07:40;;;;;;;44.87;17.30;;;3.20;99.90;;;;;;4864263;29;20189;-89
2020/12/14 03:10:06;;;;;;;51.57;18.07;;;2.80;99.90;;;;;;4864408;29;20531;-90
2020/12/14 03:12:34;;;;;;;43.20;17.33;;;2.70;99.90;;;;;;4880867;29;20265;-89
2020/12/14 03:15:00;;;;;;;48.10;18.37;;;2.00;99.90;;;;;;4849478;29;20194;-89
2020/12/14 03:17:26;;;;;;;56.17;19.93;;;1.10;99.90;;;;;;4848759;29;20663;-89
2020/12/14 03:19:52;;;;;;;48.87;19.47;;;1.90;99.90;;;;;;4864506;29;20192;-89
2020/12/14 03:22:17;;;;;;;45.27;16.30;;;0.50;99.90;;;;;;4864505;29;20634;-89
2020/12/14 03:24:43;;;;;;;47.33;16.67;;;2.80;99.90;;;;;;4864053;29;20193;-89
2020/12/14 03:27:09;;;;;;;49.43;17.70;;;3.00;99.90;;;;;;4864441;29;20234;-89
2020/12/14 03:29:35;;;;;;;48.03;17.17;;;-0.10;99.90;;;;;;4863911;29;20190;-89
2020/12/14 03:32:00;;;;;;;53.67;17.70;;;0.30;99.90;;;;;;4848674;29;20224;-89
2020/12/14 03:34:26;;;;;;;56.20;18.20;;;2.50;99.90;;;;;;4880625;29;20201;-89
2020/12/14 03:36:51;;;;;;;58.43;17.67;;;1.70;99.90;;;;;;4864491;29;20248;-89
2020/12/14 03:39:17;;;;;;;59.93;18.60;;;1.90;99.90;;;;;;4864199;29;20193;-89
2020/12/14 03:41:42;;;;;;;54.43;18.47;;;0.30;99.90;;;;;;4863577;29;20249;-89
2020/12/14 03:44:08;;;;;;;49.73;18.57;;;0.50;99.90;;;;;;4848614;29;20200;-89
2020/12/14 03:46:35;;;;;;;43.93;16.43;;;2.40;99.90;;;;;;4879987;29;20274;-89
2020/12/14 03:49:01;;;;;;;45.23;18.03;;;1.70;99.90;;;;;;4864116;29;20182;-88
2020/12/14 03:51:30;;;;;;;51.63;16.83;;;2.30;99.90;;;;;;4879904;29;20254;-88
2020/12/14 03:53:56;;;;;;;49.03;16.93;;;1.90;99.90;;;;;;4863827;29;20205;-89
2020/12/14 03:56:23;;;;;;;49.33;16.90;;;0.10;99.90;;;;;;4863993;29;20199;-89
2020/12/14 03:58:49;;;;;;;37.60;16.07;;;0.40;99.90;;;;;;4863449;29;20273;-89
2020/12/14 04:01:22;;;;;;;49.53;18.37;;;0.10;99.90;;;;;;4880343;29;20186;-89
2020/12/14 04:03:47;;;;;;;53.40;19.40;;;0.50;99.90;;;;;;4863862;29;20271;-89
2020/12/14 04:06:21;;;;;;;48.17;17.10;;;0.40;99.90;;;;;;4847839;29;20741;-87
2020/12/14 04:08:48;;;;;;;58.30;17.90;;;0.50;99.90;;;;;;4848529;29;20326;-89
2020/12/14 04:11:14;;;;;;;55.07;19.03;;;1.80;99.90;;;;;;4863514;29;20662;-88
2020/12/14 04:13:41;;;;;;;54.03;17.50;;;2.80;99.90;;;;;;4863025;29;20214;-87
2020/12/14 04:16:07;;;;;;;61.67;20.13;;;2.40;99.90;;;;;;4880252;29;20727;-89
2020/12/14 04:18:33;;;;;;;61.53;21.53;;;0.50;99.90;;;;;;4863153;29;20543;-88
2020/12/14 04:20:58;;;;;;;66.77;22.37;;;2.80;99.90;;;;;;4863260;29;20189;-88
2020/12/14 04:23:24;;;;;;;55.97;20.33;;;1.70;99.90;;;;;;4847921;29;20193;-88
2020/12/14 04:25:50;;;;;;;53.87;18.93;;;1.20;99.90;;;;;;4879667;29;20190;-88
2020/12/14 04:28:15;;;;;;;60.03;18.30;;;0.50;99.90;;;;;;4847789;29;20194;-88
2020/12/14 04:30:41;;;;;;;52.70;18.60;;;3.00;99.90;;;;;;4847473;29;20333;-87
2020/12/14 04:33:07;;;;;;;57.40;18.10;;;1.20;99.90;;;;;;4863153;29;20217;-87
2020/12/14 04:35:32;;;;;;;57.80;19.80;;;2.10;99.90;;;;;;4863011;29;20276;-87
2020/12/14 04:37:58;;;;;;;55.60;20.97;;;2.20;99.90;;;;;;4863284;29;20206;-87
2020/12/14 04:40:28;;;;;;;56.60;20.20;;;2.10;99.90;;;;;;4863230;29;20196;-88
2020/12/14 04:42:57;;;;;;;63.57;21.47;;;0.40;99.90;;;;;;4880184;29;20237;-88
2020/12/14 04:45:27;;;;;;;62.73;21.07;;;1.00;99.90;;;;;;4862116;29;20587;-88
2020/12/14 04:47:57;;;;;;;67.80;22.07;;;0.40;99.90;;;;;;4862252;29;20223;-88
2020/12/14 04:50:25;;;;;;;69.87;22.03;;;3.10;99.90;;;;;;4879215;29;20188;-87
2020/12/14 04:52:51;;;;;;;66.17;21.70;;;0.50;99.90;;;;;;4877967;29;20265;-88
2020/12/14 04:55:22;;;;;;;58.70;18.67;;;3.00;99.90;;;;;;4846312;29;20647;-88
2020/12/14 04:57:50;;;;;;;68.47;21.07;;;2.30;99.90;;;;;;4861951;29;20195;-88
2020/12/14 05:00:17;;;;;;;63.10;21.67;;;2.70;99.90;;;;;;4862746;29;20194;-88
2020/12/14 05:02:43;;;;;;;66.27;20.50;;;1.90;99.90;;;;;;4862406;29;20201;-88
2020/12/14 05:05:13;;;;;;;69.80;23.93;;;0.40;99.90;;;;;;4879453;29;20181;-89
2020/12/14 05:07:43;;;;;;;63.77;20.03;;;2.90;99.90;;;;;;4862734;29;20182;-88
2020/12/14 05:10:09;;;;;;;67.07;23.17;;;0.40;99.90;;;;;;4879389;29;20180;-89
2020/12/14 05:12:43;;;;;;;53.37;19.90;;;1.80;99.90;;;;;;4847009;29;20254;-88
2020/12/14 05:15:15;;;;;;;61.83;20.50;;;2.20;99.90;;;;;;4862646;29;20187;-89
2020/12/14 05:17:41;;;;;;;57.07;19.87;;;1.20;99.90;;;;;;4862268;29;20197;-89
2020/12/14 05:20:27;;;;;;;50.30;19.33;;;2.70;99.90;;;;;;4862628;29;20238;-88
2020/12/14 05:23:00;;;;;;;55.33;20.13;;;3.00;99.90;;;;;;4861601;29;20220;-87
2020/12/14 05:25:26;;;;;;;60.17;21.13;;;0.70;99.90;;;;;;4879278;29;20188;-88
2020/12/14 05:28:13;;;;;;;67.33;21.20;;;2.00;99.90;;;;;;4878952;29;20233;-88
2020/12/14 05:30:50;;;;;;;76.83;24.23;;;0.40;99.90;;;;;;4862218;29;20540;-87
2020/12/14 05:33:21;;;;;;;60.40;21.17;;;0.30;99.90;;;;;;4862524;29;20295;-87
2020/12/14 05:35:47;;;;;;;55.17;19.00;;;0.30;99.90;;;;;;4878927;29;20178;-87
2020/12/14 05:38:14;;;;;;;61.63;19.30;;;2.60;99.90;;;;;;4862514;29;20189;-87
2020/12/14 05:40:40;;;;;;;60.53;21.13;;;1.00;99.90;;;;;;4878384;29;20258;-87
2020/12/14 05:43:18;;;;;;;53.70;19.80;;;2.70;99.90;;;;;;4879118;29;20642;-87
2020/12/14 05:45:44;;;;;;;53.63;18.93;;;2.30;99.90;;;;;;4878816;29;20230;-87
2020/12/14 05:48:27;;;;;;;57.57;19.23;;;1.70;99.90;;;;;;4846915;29;20229;-87
2020/12/14 05:51:04;;;;;;;54.00;18.87;;;2.50;99.90;;;;;;4862143;29;20209;-87
2020/12/14 05:53:36;;;;;;;66.97;20.97;;;0.30;99.90;;;;;;4862424;29;20232;-87
2020/12/14 05:56:04;;;;;;;70.77;22.80;;;2.50;99.90;;;;;;4878964;29;20184;-87
2020/12/14 05:58:31;;;;;;;61.10;20.47;;;0.30;99.90;;;;;;4862284;29;20553;-87
2020/12/14 06:00:59;;;;;;;66.63;21.73;;;2.90;99.90;;;;;;4878755;29;20195;-87
2020/12/14 06:03:26;;;;;;;74.00;23.97;;;3.00;99.90;;;;;;4847110;29;20200;-87
2020/12/14 06:06:01;;;;;;;74.00;24.17;;;1.80;99.90;;;;;;4861848;29;20186;-87
2020/12/14 06:08:45;;;;;;;69.40;21.40;;;0.40;99.90;;;;;;4880295;29;20185;-87
2020/12/14 06:11:14;;;;;;;70.70;22.73;;;2.80;99.90;;;;;;4882505;29;20189;-87
2020/12/14 06:13:51;;;;;;;62.13;20.97;;;2.90;99.90;;;;;;4865191;29;20254;-88
2020/12/14 06:16:28;;;;;;;71.63;20.57;;;0.40;99.90;;;;;;4882744;29;20177;-88
2020/12/14 06:18:54;;;;;;;63.83;21.03;;;0.40;99.90;;;;;;4882164;29;20181;-88
2020/12/14 06:21:39;;;;;;;66.83;20.90;;;2.20;99.90;;;;;;4882224;29;20185;-91
2020/12/14 06:24:06;;;;;;;64.57;23.00;;;2.90;99.90;;;;;;4865306;29;20651;-89
2020/12/14 06:26:36;;;;;;;68.37;23.07;;;2.00;99.90;;;;;;4850222;29;20587;-90
2020/12/14 06:29:05;;;;;;;75.27;24.33;;;3.00;99.90;;;;;;4866078;29;20190;-93
2020/12/14 06:31:34;;;;;;;63.90;21.90;;;2.10;99.90;;;;;;4864615;29;20246;-93
2020/12/14 06:34:03;;;;;;;69.13;22.70;;;0.30;99.90;;;;;;4882257;29;20581;-93
2020/12/14 06:36:39;;;;;;;61.67;23.07;;;2.40;99.90;;;;;;4882107;29;20269;-93
2020/12/14 06:39:26;;;;;;;73.17;22.07;;;2.00;99.90;;;;;;4865507;29;20182;-93
2020/12/14 06:41:53;;;;;;;80.90;22.77;;;2.30;99.90;;;;;;4880870;29;20363;-91
2020/12/14 06:44:19;;;;;;;74.53;22.67;;;1.10;99.90;;;;;;4881300;29;20238;-90
2020/12/14 06:46:45;;;;;;;70.30;22.87;;;1.80;99.90;;;;;;4878828;29;20547;-91
2020/12/14 06:49:11;;;;;;;66.43;20.10;;;2.70;99.90;;;;;;4888743;29;20228;-89
2020/12/14 06:51:51;;;;;;;63.93;19.07;;;2.10;99.90;;;;;;4897503;29;20192;-87
2020/12/14 06:54:38;;;;;;;62.50;19.67;;;2.50;99.90;;;;;;4858509;29;20209;-88
2020/12/14 06:57:05;;;;;;;58.50;20.10;;;0.50;99.90;;;;;;4887283;29;20175;-89
2020/12/14 06:59:31;;;;;;;54.60;18.20;;;1.50;99.90;;;;;;4882794;29;20680;-91
2020/12/14 07:01:58;;;;;;;50.73;19.07;;;1.80;99.90;;;;;;4882275;29;20204;-89
2020/12/14 07:04:31;;;;;;;54.53;18.57;;;1.90;99.90;;;;;;4886636;29;20189;-92
2020/12/14 07:07:17;;;;;;;54.27;19.67;;;3.10;99.90;;;;;;4898479;29;20517;-93
2020/12/14 07:09:43;;;;;;;53.77;18.50;;;0.40;99.90;;;;;;4898154;29;20188;-91
2020/12/14 07:12:09;;;;;;;56.60;19.30;;;1.20;99.90;;;;;;4899728;29;20286;-91
2020/12/14 07:14:48;;;;;;;55.03;18.60;;;2.60;99.90;;;;;;4898400;29;20645;-90
2020/12/14 07:17:32;;;;;;;60.17;18.67;;;0.40;99.90;;;;;;4895569;29;20176;-92
2020/12/14 07:19:59;;;;;;;62.43;19.87;;;1.70;99.90;;;;;;4882283;29;20225;-90
2020/12/14 07:22:31;;;;;;;54.87;19.47;;;1.90;99.90;;;;;;4883050;29;20185;-91
2020/12/14 07:25:03;;;;;;;55.90;19.00;;;2.40;99.90;;;;;;4882543;29;20183;-88
2020/12/14 07:27:31;;;;;;;57.70;18.80;;;0.50;99.90;;;;;;4899343;29;20244;-89
2020/12/14 07:30:12;;;;;;;71.10;21.57;;;2.10;99.90;;;;;;4899118;29;20215;-90
2020/12/14 07:32:39;;;;;;;66.47;19.30;;;1.40;99.90;;;;;;4882394;29;20219;-89
2020/12/14 07:35:07;;;;;;;55.90;19.43;;;0.50;99.90;;;;;;4857369;29;20196;-93
2020/12/14 07:37:34;;;;;;;55.00;18.37;;;0.50;99.90;;;;;;4872628;29;20198;-90
2020/12/14 07:39:59;;;;;;;53.83;18.00;;;2.50;99.90;;;;;;4859053;29;20722;-92
2020/12/14 07:42:33;;;;;;;57.83;18.80;;;2.00;99.90;;;;;;4872567;29;20333;-90
2020/12/14 07:45:17;;;;;;;53.03;18.77;;;2.30;99.90;;;;;;4880574;29;21037;-93
2020/12/14 07:47:45;;;;;;;58.73;18.70;;;1.80;99.90;;;;;;4864337;29;20185;-94
2020/12/14 07:50:16;;;;;;;48.37;18.53;;;1.80;99.90;;;;;;4866464;29;20530;-93
2020/12/14 07:52:43;;;;;;;53.50;20.80;;;2.80;99.90;;;;;;4887542;29;20213;-93
2020/12/14 07:55:13;;;;;;;58.20;19.47;;;2.60;99.90;;;;;;4871174;29;20185;-93
2020/12/14 07:57:44;;;;;;;60.77;20.20;;;3.10;99.90;;;;;;4892035;29;20264;-90
2020/12/14 08:00:23;;;;;;;55.43;19.47;;;0.60;99.90;;;;;;4874317;29;20197;-91
2020/12/14 08:02:50;;;;;;;54.90;18.83;;;0.80;99.90;;;;;;4857643;29;20646;-93
2020/12/14 08:05:19;;;;;;;60.73;21.37;;;0.60;99.90;;;;;;4874655;29;20269;-94
2020/12/14 08:07:50;;;;;;;64.10;20.30;;;1.20;99.90;;;;;;4889889;29;20196;-93
2020/12/14 08:10:18;;;;;;;62.00;20.87;;;2.70;99.90;;;;;;4870955;29;20701;-93
2020/12/14 08:12:45;;;;;;;54.57;19.53;;;2.80;99.90;;;;;;4870664;29;20322;-94
2020/12/14 08:15:19;;;;;;;60.17;21.23;;;3.10;99.90;;;;;;4889754;29;20182;-92
2020/12/14 08:17:46;;;;;;;68.00;22.33;;;0.90;99.90;;;;;;4871584;29;20191;-92
2020/12/14 08:20:34;;;;;;;58.60;20.77;;;2.70;99.90;;;;;;4890373;29;20191;-93
2020/12/14 08:23:19;;;;;;;67.37;23.43;;;3.40;99.90;;;;;;4875825;29;20193;-95
2020/12/14 08:25:53;;;;;;;67.40;21.00;;;2.00;99.90;;;;;;4862621;29;20254;-92
2020/12/14 08:28:34;;;;;;;58.73;19.83;;;0.70;99.90;;;;;;4863158;29;20538;-93
2020/12/14 08:31:03;;;;;;;54.77;20.90;;;1.10;99.90;;;;;;4852982;29;20219;-92
2020/12/14 08:33:30;;;;;;;64.10;21.13;;;2.90;99.90;;;;;;4897284;29;20216;-92
2020/12/14 08:35:56;;;;;;;56.93;22.40;;;1.60;99.90;;;;;;4880863;29;20203;-91
2020/12/14 08:38:29;;;;;;;60.20;22.33;;;1.60;99.90;;;;;;4898312;29;20187;-93
2020/12/14 08:41:04;;;;;;;61.53;23.03;;;1.70;99.90;;;;;;4881419;29;20188;-88
2020/12/14 08:43:34;;;;;;;65.30;23.90;;;0.80;99.90;;;;;;4881855;29;20277;-92
2020/12/14 08:46:14;;;;;;;65.10;22.50;;;0.90;99.90;;;;;;4897730;29;20209;-91
2020/12/14 08:48:57;;;;;;;64.17;23.73;;;2.90;99.90;;;;;;4870977;29;20590;-92
2020/12/14 08:51:25;;;;;;;62.67;24.13;;;1.00;99.90;;;;;;4870776;29;20592;-90
2020/12/14 08:53:52;;;;;;;56.50;22.27;;;3.30;99.90;;;;;;4871222;29;20694;-90
2020/12/14 08:56:23;;;;;;;69.63;25.37;;;3.10;99.90;;;;;;4872463;29;20545;-95
2020/12/14 08:58:53;;;;;;;58.23;22.27;;;3.10;99.90;;;;;;4899038;29;20193;-93
2020/12/14 09:01:27;;;;;;;69.03;23.43;;;0.90;99.90;;;;;;4880863;29;20209;-93
2020/12/14 09:04:01;;;;;;;73.00;26.90;;;0.90;99.90;;;;;;4850869;29;20202;-92
2020/12/14 09:06:32;;;;;;;57.13;22.20;;;3.20;99.90;;;;;;4864832;29;20582;-93
2020/12/14 09:09:05;;;;;;;62.20;23.53;;;2.80;99.90;;;;;;4863108;29;20234;-93
2020/12/14 09:11:33;;;;;;;57.37;21.73;;;1.00;99.90;;;;;;4863678;29;20208;-92
2020/12/14 09:14:00;;;;;;;53.20;21.30;;;2.90;99.90;;;;;;4882645;29;20280;-93
2020/12/14 09:16:26;;;;;;;66.83;23.70;;;3.20;99.90;;;;;;4864928;29;20184;-91
2020/12/14 09:18:52;;;;;;;65.57;22.63;;;2.20;99.90;;;;;;4879345;29;20187;-92
2020/12/14 09:21:18;;;;;;;60.60;21.50;;;0.80;99.90;;;;;;4866173;29;20276;-90
2020/12/14 09:24:05;;;;;;;59.80;22.73;;;1.60;99.90;;;;;;4887652;29;20193;-91
2020/12/14 09:26:30;;;;;;;63.13;22.40;;;3.30;99.90;;;;;;4901362;29;20189;-87
2020/12/14 09:28:56;;;;;;;67.07;23.37;;;3.70;99.90;;;;;;4884391;29;20213;-89
2020/12/14 09:31:22;;;;;;;65.87;23.83;;;3.60;99.90;;;;;;4872663;29;20184;-88
2020/12/14 09:33:47;;;;;;;66.20;23.50;;;2.90;99.90;;;;;;4887192;29;20284;-92
2020/12/14 09:36:16;;;;;;;69.57;24.73;;;1.00;99.90;;;;;;4849463;29;20232;-91
2020/12/14 09:38:42;;;;;;;65.97;23.27;;;2.00;99.90;;;;;;4871060;29;20190;-89
2020/12/14 09:41:08;;;;;;;67.13;22.43;;;0.80;99.90;;;;;;4893570;29;20237;-92
2020/12/14 09:43:34;;;;;;;72.37;24.17;;;3.10;99.90;;;;;;4904980;29;20176;-93
2020/12/14 09:46:00;;;;;;;81.23;24.93;;;2.50;99.90;;;;;;4905031;29;20174;-87
2020/12/14 09:48:25;;;;;;;78.83;25.77;;;0.90;99.90;;;;;;4870003;29;20182;-93
2020/12/14 09:50:51;;;;;;;71.97;24.80;;;1.60;99.90;;;;;;4886327;29;20181;-94
2020/12/14 09:53:17;;;;;;;69.57;24.33;;;3.80;99.90;;;;;;4851258;29;20221;-95
2020/12/14 09:55:45;;;;;;;68.60;23.80;;;3.50;99.90;;;;;;4853115;29;20196;-93
2020/12/14 09:58:11;;;;;;;72.00;23.00;;;2.70;99.90;;;;;;4887003;29;20205;-93
2020/12/14 10:00:37;;;;;;;94.13;28.83;;;3.10;99.90;;;;;;4884894;29;20596;-91
2020/12/14 10:03:04;;;;;;;86.30;31.93;;;1.00;99.90;;;;;;4884549;29;20642;-92
2020/12/14 10:05:29;;;;;;;86.33;28.53;;;3.20;99.90;;;;;;4901656;29;20273;-93
2020/12/14 10:07:55;;;;;;;76.37;27.00;;;0.90;99.90;;;;;;4868612;29;20275;-92
2020/12/14 10:10:21;;;;;;;79.27;25.97;;;2.70;99.90;;;;;;4900486;29;20181;-92
2020/12/14 10:12:49;;;;;;;72.67;25.40;;;1.80;99.90;;;;;;4884172;29;20697;-92
2020/12/14 10:15:17;;;;;;;80.63;28.20;;;3.70;99.90;;;;;;4886820;29;20665;-91
2020/12/14 10:17:43;;;;;;;77.90;24.77;;;1.40;99.90;;;;;;4902275;29;20713;-89
2020/12/14 10:20:08;;;;;;;77.03;25.93;;;2.10;99.90;;;;;;4869748;29;20193;-90
2020/12/14 10:22:36;;;;;;;80.60;25.13;;;2.60;99.90;;;;;;4865805;29;20189;-91
2020/12/14 10:25:04;;;;;;;78.83;25.67;;;3.10;99.90;;;;;;4866150;29;20178;-92
2020/12/14 10:27:30;;;;;;;98.07;34.90;;;3.00;99.90;;;;;;4882938;29;20189;-93
2020/12/14 10:29:56;;;;;;;98.43;36.47;;;1.00;99.90;;;;;;4885826;29;20251;-93
2020/12/14 10:32:21;;;;;;;84.07;27.97;;;3.60;99.90;;;;;;4874281;29;20202;-93
2020/12/14 10:34:47;;;;;;;82.80;28.00;;;3.60;99.90;;;;;;4854223;29;20785;-88
2020/12/14 10:37:12;;;;;;;74.07;25.13;;;3.00;99.90;;;;;;4878887;29;20654;-94
2020/12/14 10:39:38;;;;;;;79.43;25.20;;;2.70;99.90;;;;;;4871898;29;20191;-92
2020/12/14 10:42:04;;;;;;;89.80;28.33;;;1.70;99.90;;;;;;4872255;29;20233;-86
2020/12/14 10:44:30;;;;;;;93.97;28.47;;;3.10;99.90;;;;;;4858037;29;20246;-88
2020/12/14 10:47:02;;;;;;;84.33;25.83;;;1.20;99.90;;;;;;4872950;29;20202;-90
2020/12/14 10:49:28;;;;;;;71.43;25.50;;;2.20;99.90;;;;;;4890397;29;20512;-92
2020/12/14 10:51:53;;;;;;;71.43;23.07;;;1.20;99.90;;;;;;4872983;29;20196;-92
2020/12/14 10:54:19;;;;;;;75.03;23.53;;;1.10;99.90;;;;;;4859764;29;20210;-93
2020/12/14 10:56:45;;;;;;;79.13;24.60;;;1.10;99.90;;;;;;4858166;29;20646;-90
2020/12/14 10:59:11;;;;;;;76.40;25.87;;;0.70;99.90;;;;;;4867994;29;20206;-93
2020/12/14 11:01:36;;;;;;;76.53;27.23;;;2.50;99.90;;;;;;4858343;29;20226;-92
2020/12/14 11:04:02;;;;;;;77.77;24.70;;;3.10;99.90;;;;;;4871464;29;20658;-93
2020/12/14 11:06:32;;;;;;;69.97;22.67;;;2.40;99.90;;;;;;4887910;29;20194;-93
2020/12/14 11:08:58;;;;;;;73.77;22.77;;;1.20;99.90;;;;;;4882961;29;20189;-93
2020/12/14 11:11:31;;;;;;;71.43;24.90;;;3.30;99.90;;;;;;4899939;29;20232;-93
2020/12/14 11:13:58;;;;;;;63.07;22.13;;;1.20;99.90;;;;;;4889635;29;20209;-94
2020/12/14 11:16:23;;;;;;;66.83;23.50;;;1.20;99.90;;;;;;4885188;29;20188;-91
2020/12/14 11:18:49;;;;;;;56.67;21.13;;;2.80;99.90;;;;;;4887713;29;20181;-92
2020/12/14 11:21:15;;;;;;;46.00;19.23;;;1.20;99.90;;;;;;4857524;29;20665;-93
2020/12/14 11:23:40;;;;;;;52.77;18.60;;;1.30;99.90;;;;;;4855718;29;20550;-94
2020/12/14 11:26:06;;;;;;;55.93;19.37;;;1.30;99.90;;;;;;4873225;29;20188;-94
2020/12/14 11:28:32;;;;;;;47.07;17.13;;;1.70;99.90;;;;;;4891417;29;20186;-91
2020/12/14 11:30:57;;;;;;;47.80;17.17;;;1.30;99.90;;;;;;4867144;29;20200;-93
2020/12/14 11:33:23;;;;;;;48.00;17.47;;;1.30;99.90;;;;;;4884908;29;20213;-95
2020/12/14 11:35:48;;;;;;;48.63;18.40;;;1.30;99.90;;;;;;4851503;29;20205;-93
2020/12/14 11:38:14;;;;;;;50.97;18.73;;;1.30;99.90;;;;;;4899501;29;20190;-91
2020/12/14 11:40:40;;;;;;;50.70;18.60;;;1.70;99.90;;;;;;4873660;29;20196;-87
2020/12/14 11:43:06;;;;;;;45.30;17.13;;;1.40;99.90;;;;;;4873912;29;20193;-91
2020/12/14 11:45:32;;;;;;;48.70;18.30;;;3.40;99.90;;;;;;4858407;29;20545;-87
2020/12/14 11:47:58;;;;;;;46.87;15.77;;;2.80;99.90;;;;;;4888664;29;20193;-90
2020/12/14 11:50:23;;;;;;;51.30;16.80;;;2.90;99.90;;;;;;4875687;29;20220;-89
2020/12/14 11:52:49;;;;;;;48.77;18.07;;;2.90;99.90;;;;;;4872143;29;20639;-91
2020/12/14 11:55:14;;;;;;;49.90;17.77;;;2.90;99.90;;;;;;4864239;29;20738;-90
2020/12/14 11:57:40;;;;;;;55.73;18.37;;;2.70;99.90;;;;;;4871620;29;20226;-92
2020/12/14 12:00:07;;;;;;;51.83;19.13;;;1.50;99.90;;;;;;4873103;29;20185;-91
2020/12/14 12:02:32;;;;;;;48.50;19.20;;;2.30;99.90;;;;;;4889648;29;20190;-92
2020/12/14 12:04:58;;;;;;;48.83;16.90;;;1.60;99.90;;;;;;4871059;29;20696;-90
2020/12/14 12:07:24;;;;;;;41.80;17.50;;;1.50;99.90;;;;;;4890758;29;20191;-90
2020/12/14 12:09:49;;;;;;;45.67;16.97;;;3.20;99.90;;;;;;4872793;29;20181;-91
2020/12/14 12:12:15;;;;;;;49.33;17.90;;;1.60;99.90;;;;;;4887381;29;20216;-92
2020/12/14 12:14:41;;;;;;;43.37;16.57;;;2.80;99.90;;;;;;4886955;29;20217;-92
2020/12/14 12:17:06;;;;;;;40.40;16.73;;;3.60;99.90;;;;;;4889192;29;20678;-94
2020/12/14 12:19:32;;;;;;;51.03;19.33;;;3.30;99.90;;;;;;4857865;29;20667;-95
2020/12/14 12:21:59;;;;;;;49.30;20.23;;;1.40;99.90;;;;;;4872958;29;20221;-95
2020/12/14 12:24:25;;;;;;;39.23;16.23;;;1.50;99.90;;;;;;4858253;29;20193;-94
2020/12/14 12:26:51;;;;;;;40.53;16.13;;;2.40;99.90;;;;;;4893000;29;20196;-91
2020/12/14 12:29:20;;;;;;;40.93;16.63;;;1.40;99.90;;;;;;4890397;29;20201;-95
2020/12/14 12:31:51;;;;;;;50.13;16.37;;;1.90;99.90;;;;;;4890312;29;20212;-94
2020/12/14 12:34:16;;;;;;;44.13;16.50;;;2.00;99.90;;;;;;4864336;29;20204;-90
2020/12/14 12:36:52;;;;;;;46.37;17.00;;;1.30;99.90;;;;;;4856739;29;20663;-92
2020/12/14 12:39:17;;;;;;;48.43;17.03;;;1.30;99.90;;;;;;4871749;29;20187;-93
2020/12/14 12:41:51;;;;;;;46.70;16.27;;;3.30;99.90;;;;;;4872441;29;20319;-94